Aeroporto :
LOGIN :

Iscrizione | Disclaimer

   EN    FR    IT 

 










Sommario :    VFR   VFR Marginale   IFR   IFR Intensivo   IFR Molto Intensivo
Visibilità : 
Base nubi : 
>= 8 km
>= 3000ft
5 / 8 km
1000 / 3000 ft
1500m / 5 km
500 / 1000 ft
800 / 1500m
200 / 500 ft
< 800m
< 200 ft
Simboli :   Temporali  Nebbia  Neve Forte  Precipitazioni Forti  Vento > 20 kt
SIGMETs :   Varie  Temporali  Ghiacco  Turbolenza  Onda orograficha  Ceneri Vulcaniche






- Altitudine del aeroporto : 580 ft


LFOA - Avord

ULTIMO METAR :
  • 051300Z AUTO 23010KT 9999 FEW040 BKN140 22/14 Q1011 TEMPO 4000 -SHRA SCT015TCU BECMG 24015G25KT

METARs OBSOLETI :
  • 051230Z AUTO 23009KT 180V270 9999 SCT039 SCT047 BKN098 22/13 Q1011 TEMPO 4000 -SHRA SCT015TCU BECMG 24015G25KT
  • 051200Z AUTO 24011KT 200V280 9999 FEW035 SCT042 22/13 Q1012 TEMPO 4000 -SHRA SCT015TCU BECMG 24015G25KT
  • 051130Z AUTO 23011KT 200V260 9999 FEW027 SCT033 BKN056 20/14 Q1012 TEMPO 4000 -SHRA SCT015TCU BECMG 24015G25KT
  • 051100Z AUTO 25010KT 9999 FEW025 SCT037 BKN058 21/15 Q1012 TEMPO 4000 -SHRA SCT015TCU BECMG 24015G25KT
  • 051030Z AUTO 26011KT 9999 FEW022 BKN062 20/15 Q1013 TEMPO 4000 -SHRA SCT015TCU BECMG 24015G25KT

TAF TAF LFOA
Valido dal 05 a 09 ore il 06 a 09 ore UTC


050800Z 0509/0609 27012KT 9999 OVC013 TX22/0515Z TN14/0603Z
BECMG 0510/0512 24015G25KT
PROB30
TEMPO 0512/0515 4000 -SHRA SCT015TCU
TEMPO 0518/0603 3000 RA BKN012
BECMG 0607/0609 24012KT



MetMap, La meteo Aeronautica in un colpo d'occhio ! - Copyright ORBIFLY Dicembre 2007 - Disclaimer

ORBIFLY MET'MAP TEAM :

Programmazione e sviluppo : Alexandra Zaïnal
Concezione : Baudouin d'Aumeries
Aiuto per la programmazione : Marc-Olivier Méhu
Supporto tecnico e logistico : Manuel Goepfert
Aiuto per la traduzione : Arnaldo La Scala

Contatto : metmap@orbifly.com




FONTI E CREDITI :

   NOAA